Southlake's Hourly Summary for Tuesday, May 8, 2018
Hour Temp
(f)
RH
(%)
Solar Rad.
(MJ/m2)
Rainfall
(in)
Wind
(mph)
5/8/2018 12:00 AM 75 55 0 0 3.28
5/8/2018 1:00 AM 75 54 0 0 4.75
5/8/2018 2:00 AM 74 54 0 0 5.59
5/8/2018 3:00 AM 73 55 0 0 4.25
5/8/2018 4:00 AM 71 59 0 0 3.58
5/8/2018 5:00 AM 67 73 0 0 1.4
5/8/2018 6:00 AM 63 86 0.01 0 0.95
5/8/2018 7:00 AM 67 73 0.28 0 2.96
5/8/2018 8:00 AM 71 65 1.01 0 4.7
5/8/2018 9:00 AM 76 57 1.86 0 6.43
5/8/2018 10:00 AM 81 47 2.64 0 8.33
5/8/2018 11:00 AM 83 44 2.97 0 7.89
5/8/2018 12:00 PM 85 41 3.07 0 9.45
5/8/2018 1:00 PM 87 37 3.51 0 9.68
5/8/2018 2:00 PM 87 35 3.12 0 10.85
5/8/2018 3:00 PM 87 35 2.27 0 10.35
5/8/2018 4:00 PM 89 32 2.67 0 11.02
5/8/2018 5:00 PM 88 32 1.92 0 10.35
5/8/2018 6:00 PM 87 32 1.12 0 10.23
5/8/2018 7:00 PM 85 35 0.36 0 8.39
5/8/2018 8:00 PM 82 37 0.02 0 7.1
5/8/2018 9:00 PM 80 41 0 0 7.21
5/8/2018 10:00 PM 78 44 0 0 7.61
5/8/2018 11:00 PM 77 49 0 0 7.44
Data Summary 78 48 26.83 0.00 6.82